Observation data for Reese Center on 11/09/2019      Previous  Date       Current Mesonet Observations  Soil Data  Daily Summary Page  Observations in Plain Language
KREE 090600Z 23007KT 03/03 A3029 RMK A01 T00330030  RH  099%=      5-min Rain = 0
KREE 090605Z 24007KT 03/03 A3029 RMK A01 T00320029  RH  099%=      5-min Rain = 0
KREE 090610Z 24007KT 03/03 A3029 RMK A01 T00310027  RH  099%=      5-min Rain = 0
KREE 090615Z 24008KT 03/03 A3029 RMK A01 T00310027  RH  099%=      5-min Rain = 0
KREE 090620Z 24008KT 03/03 A3029 RMK A01 T00310028  RH  099%=      5-min Rain = 0
KREE 090625Z 24008KT 03/03 A3028 RMK A01 T00310027  RH  099%=      5-min Rain = 0
KREE 090630Z 26007KT 04/03 A3029 RMK A01 T00350032  RH  099%=      5-min Rain = 0
KREE 090635Z 26008KT 04/04 A3029 RMK A01 T00440041  RH  099%=      5-min Rain = 0
KREE 090640Z 26008KT 05/04 A3029 RMK A01 T00470044  RH  099%=      5-min Rain = 0
KREE 090645Z 26008KT 05/05 A3028 RMK A01 T00490046  RH  099%=      5-min Rain = 0
KREE 090650Z 25009KT 05/05 A3028 RMK A01 T00490046  RH  099%=      5-min Rain = 0
KREE 090655Z 26008KT 05/05 A3028 RMK A01 T00490045  RH  099%=      5-min Rain = 0
KREE 090700Z 27006KT 05/04 A3028 RMK A01 T00480044  RH  099%=      5-min Rain = 0
KREE 090705Z 27006KT 05/04 A3028 RMK A01 T00480044  RH  099%=      5-min Rain = 0
KREE 090710Z 26006KT 05/04 A3028 RMK A01 T00480044  RH  099%=      5-min Rain = 0
KREE 090715Z 25006KT 05/04 A3028 RMK A01 T00480044  RH  099%=      5-min Rain = 0
KREE 090720Z 25006KT 04/04 A3028 RMK A01 T00440040  RH  098%=      5-min Rain = 0
KREE 090725Z 25006KT 04/04 A3028 RMK A01 T00420038  RH  098%=      5-min Rain = 0
KREE 090730Z 26005KT 04/04 A3028 RMK A01 T00410037  RH  099%=      5-min Rain = 0
KREE 090735Z 28003KT 04/04 A3028 RMK A01 T00400037  RH  099%=      5-min Rain = 0
KREE 090740Z 29002KT 04/04 A3028 RMK A01 T00400036  RH  099%=      5-min Rain = 0
KREE 090745Z 27003KT 04/04 A3028 RMK A01 T00400036  RH  099%=      5-min Rain = 0
KREE 090750Z 25003KT 04/04 A3027 RMK A01 T00440040  RH  099%=      5-min Rain = 0
KREE 090755Z 23004KT 04/04 A3027 RMK A01 T00420038  RH  099%=      5-min Rain = 0
KREE 090800Z 22004KT 04/03 A3027 RMK A01 T00350031  RH  098%=      5-min Rain = 0
KREE 090805Z 24004KT 03/03 A3027 RMK A01 T00330030  RH  099%=      5-min Rain = 0
KREE 090810Z 24004KT 03/03 A3027 RMK A01 T00340031  RH  099%=      5-min Rain = 0
KREE 090815Z 24004KT 03/02 A3027 RMK A01 T00280024  RH  099%=      5-min Rain = 0
KREE 090820Z 24005KT 03/03 A3026 RMK A01 T00290025  RH  099%=      5-min Rain = 0
KREE 090825Z 25005KT 03/02 A3026 RMK A01 T00260023  RH  099%=      5-min Rain = 0
KREE 090830Z 25005KT 03/02 A3026 RMK A01 T00260023  RH  099%=      5-min Rain = 0
KREE 090835Z 25005KT 02/02 A3026 RMK A01 T00230019  RH  099%=      5-min Rain = 0
KREE 090840Z 25005KT 02/02 A3026 RMK A01 T00200017  RH  099%=      5-min Rain = 0
KREE 090845Z 26004KT 02/02 A3026 RMK A01 T00210018  RH  099%=      5-min Rain = 0
KREE 090850Z 25005KT 02/02 A3026 RMK A01 T00200017  RH  099%=      5-min Rain = 0
KREE 090855Z 25005KT 02/01 A3025 RMK A01 T00160013  RH  099%=      5-min Rain = 0
KREE 090900Z 25005KT 01/01 A3025 RMK A01 T00140011  RH  099%=      5-min Rain = 0
KREE 090905Z 26005KT 01/01 A3026 RMK A01 T00140012  RH  100%=      5-min Rain = 0
KREE 090910Z 30003KT 02/01 A3026 RMK A01 T00160014  RH  100%=      5-min Rain = 0
KREE 090915Z 31003KT 01/01 A3026 RMK A01 T00120010  RH  100%=      5-min Rain = 0
KREE 090920Z 30003KT 01/01 A3025 RMK A01 T00120010  RH  100%=      5-min Rain = 0
KREE 090925Z 31003KT 01/01 A3025 RMK A01 T00090007  RH  100%=      5-min Rain = 0
KREE 090930Z 29004KT 01/01 A3025 RMK A01 T00100008  RH  100%=      5-min Rain = 0
KREE 090935Z 30003KT 01/01 A3025 RMK A01 T00100009  RH  100%=      5-min Rain = 0
KREE 090940Z 29004KT 01/01 A3025 RMK A01 T00100009  RH  100%=      5-min Rain = 0
KREE 090945Z 29004KT 01/01 A3025 RMK A01 T00110009  RH  100%=      5-min Rain = 0
KREE 090950Z 27004KT 01/01 A3025 RMK A01 T00120010  RH  100%=      5-min Rain = 0
KREE 090955Z 26005KT 01/01 A3025 RMK A01 T00110009  RH  100%=      5-min Rain = 0
KREE 091000Z 26005KT 01/01 A3025 RMK A01 T00110010  RH  100%=      5-min Rain = 0
KREE 091005Z 27005KT 01/01 A3025 RMK A01 T00110009  RH  100%=      5-min Rain = 0
KREE 091010Z 27005KT 01/01 A3025 RMK A01 T00100009  RH  100%=      5-min Rain = 0
KREE 091015Z 27004KT 01/01 A3025 RMK A01 T00090007  RH  100%=      5-min Rain = 0
KREE 091020Z 26004KT 01/01 A3025 RMK A01 T00080006  RH  100%=      5-min Rain = 0
KREE 091025Z 27004KT 01/01 A3024 RMK A01 T00060005  RH  100%=      5-min Rain = 0
KREE 091030Z 27004KT 01/00 A3025 RMK A01 T00050003  RH  100%=      5-min Rain = 0
KREE 091035Z 28004KT 01/00 A3025 RMK A01 T00050003  RH  100%=      5-min Rain = 0
KREE 091040Z 28005KT 01/01 A3024 RMK A01 T00090007  RH  100%=      5-min Rain = 0
KREE 091045Z 29005KT 01/01 A3024 RMK A01 T00120010  RH  100%=      5-min Rain = 0
KREE 091050Z 29004KT 01/01 A3024 RMK A01 T00110009  RH  100%=      5-min Rain = 0
KREE 091055Z 28004KT 01/01 A3024 RMK A01 T00110010  RH  100%=      5-min Rain = 0
KREE 091100Z 27004KT 01/01 A3025 RMK A01 T00090007  RH  100%=      5-min Rain = 0
KREE 091105Z 27004KT 01/01 A3025 RMK A01 T00080006  RH  100%=      5-min Rain = 0
KREE 091110Z 26005KT 01/01 A3025 RMK A01 T00060005  RH  100%=      5-min Rain = 0
KREE 091115Z 27004KT 01/00 A3025 RMK A01 T00060004  RH  100%=      5-min Rain = 0
KREE 091120Z 27004KT 01/00 A3025 RMK A01 T00060004  RH  100%=      5-min Rain = 0
KREE 091125Z 27004KT 01/00 A3025 RMK A01 T00050004  RH  100%=      5-min Rain = 0
KREE 091130Z 27003KT 01/00 A3025 RMK A01 T00050003  RH  100%=      5-min Rain = 0
KREE 091135Z 27004KT 01/01 A3025 RMK A01 T00060005  RH  100%=      5-min Rain = 0
KREE 091140Z 27005KT 01/01 A3024 RMK A01 T00080006  RH  100%=      5-min Rain = 0
KREE 091145Z 27005KT 01/01 A3024 RMK A01 T00070006  RH  100%=      5-min Rain = 0
KREE 091150Z 28005KT 01/01 A3024 RMK A01 T00080006  RH  100%=      5-min Rain = 0
KREE 091155Z 29006KT 01/01 A3024 RMK A01 T00080007  RH  100%=      5-min Rain = 0
KREE 091200Z 29006KT 01/01 A3024 RMK A01 T00070006  RH  100%=      5-min Rain = 0
KREE 091205Z 28006KT 01/01 A3024 RMK A01 T00100008  RH  100%=      5-min Rain = 0
KREE 091210Z 29006KT 01/01 A3024 RMK A01 T00110009  RH  100%=      5-min Rain = 0
KREE 091215Z 29006KT 01/01 A3025 RMK A01 T00100008  RH  100%=      5-min Rain = 0
KREE 091220Z 28006KT 01/01 A3025 RMK A01 T00090008  RH  100%=      5-min Rain = 0
KREE 091225Z 29007KT 01/01 A3025 RMK A01 T00110010  RH  100%=      5-min Rain = 0
KREE 091230Z 29007KT 01/01 A3025 RMK A01 T00120011  RH  100%=      5-min Rain = 0
KREE 091235Z 28006KT 01/01 A3025 RMK A01 T00120011  RH  100%=      5-min Rain = 0
KREE 091240Z 27006KT 01/01 A3025 RMK A01 T00110010  RH  100%=      5-min Rain = 0
KREE 091245Z 27006KT 01/01 A3025 RMK A01 T00110009  RH  100%=      5-min Rain = 0
KREE 091250Z 27005KT 01/01 A3025 RMK A01 T00110009  RH  100%=      5-min Rain = 0
KREE 091255Z 27005KT 01/01 A3025 RMK A01 T00100008  RH  100%=      5-min Rain = 0
KREE 091300Z 28005KT 01/01 A3025 RMK A01 T00110009  RH  100%=      5-min Rain = 0
KREE 091305Z 29006KT 01/01 A3026 RMK A01 T00110009  RH  100%=      5-min Rain = 0
KREE 091310Z 29006KT 01/01 A3025 RMK A01 T00120011  RH  100%=      5-min Rain = 0
KREE 091315Z 29006KT 01/01 A3026 RMK A01 T00130011  RH  100%=      5-min Rain = 0
KREE 091320Z 29006KT 01/01 A3026 RMK A01 T00130011  RH  100%=      5-min Rain = 0
KREE 091325Z 29006KT 01/01 A3026 RMK A01 T00120010  RH  100%=      5-min Rain = 0
KREE 091330Z 28006KT 01/01 A3025 RMK A01 T00130011  RH  100%=      5-min Rain = 0
KREE 091335Z 28006KT 01/01 A3025 RMK A01 T00140013  RH  100%=      5-min Rain = 0
KREE 091340Z 28006KT 02/01 A3026 RMK A01 T00150013  RH  100%=      5-min Rain = 0
KREE 091345Z 28007KT 02/01 A3025 RMK A01 T00160014  RH  100%=      5-min Rain = 0
KREE 091350Z 29007KT 02/02 A3025 RMK A01 T00190018  RH  100%=      5-min Rain = 0
KREE 091355Z 29007KT 02/02 A3026 RMK A01 T00230021  RH  100%=      5-min Rain = 0
KREE 091400Z 29007KT 02/02 A3026 RMK A01 T00240023  RH  100%=      5-min Rain = 0
KREE 091405Z 30006KT 03/03 A3026 RMK A01 T00260025  RH  100%=      5-min Rain = 0
KREE 091410Z 30006KT 03/03 A3026 RMK A01 T00290028  RH  100%=      5-min Rain = 0
KREE 091415Z 30007KT 03/03 A3026 RMK A01 T00320031  RH  100%=      5-min Rain = 0
KREE 091420Z 29007KT 04/03 A3026 RMK A01 T00350033  RH  100%=      5-min Rain = 0
KREE 091425Z 29008KT 04/03 A3026 RMK A01 T00360034  RH  100%=      5-min Rain = 0
KREE 091430Z 28008KT 04/04 A3026 RMK A01 T00380035  RH  099%=      5-min Rain = 0
KREE 091435Z 28008KT 04/04 A3026 RMK A01 T00390036  RH  099%=      5-min Rain = 0
KREE 091440Z 29008KT 04/04 A3027 RMK A01 T00420038  RH  099%=      5-min Rain = 0
KREE 091445Z 29008KT 04/04 A3027 RMK A01 T00440039  RH  098%=      5-min Rain = 0
KREE 091450Z 29008KT 05/04 A3027 RMK A01 T00470041  RH  098%=      5-min Rain = 0
KREE 091455Z 30008KT 05/04 A3027 RMK A01 T00500043  RH  097%=      5-min Rain = 0
KREE 091500Z 30008KT 05/05 A3027 RMK A01 T00530045  RH  096%=      5-min Rain = 0
KREE 091505Z 30008KT 06/05 A3027 RMK A01 T00560047  RH  095%=      5-min Rain = 0
KREE 091510Z 30008KT 06/05 A3027 RMK A01 T00600050  RH  094%=      5-min Rain = 0
KREE 091515Z 30008KT 06/05 A3027 RMK A01 T00630051  RH  093%=      5-min Rain = 0
KREE 091520Z 30007KT 07/05 A3027 RMK A01 T00660052  RH  092%=      5-min Rain = 0
KREE 091525Z 30007KT 07/05 A3027 RMK A01 T00680053  RH  091%=      5-min Rain = 0
KREE 091530Z 30008KT 07/05 A3027 RMK A01 T00690053  RH  090%=      5-min Rain = 0
KREE 091535Z 29007KT 07/06 A3027 RMK A01 T00730055  RH  090%=      5-min Rain = 0
KREE 091540Z 29007KT 08/06 A3027 RMK A01 T00780058  RH  088%=      5-min Rain = 0
KREE 091545Z 30007KT 08/06 A3027 RMK A01 T00820058  RH  087%=      5-min Rain = 0
KREE 091550Z 30008KT 08/06 A3027 RMK A01 T00840058  RH  085%=      5-min Rain = 0
KREE 091555Z 29008KT 09/06 A3027 RMK A01 T00870059  RH  084%=      5-min Rain = 0
KREE 091600Z 29007KT 09/06 A3027 RMK A01 T00890059  RH  083%=      5-min Rain = 0
KREE 091605Z 29007KT 09/06 A3027 RMK A01 T00930062  RH  082%=      5-min Rain = 0
KREE 091610Z 28007KT 10/06 A3027 RMK A01 T00990063  RH  080%=      5-min Rain = 0
KREE 091615Z 29008KT 10/06 A3027 RMK A01 T01030064  RH  078%=      5-min Rain = 0
KREE 091620Z 29008KT 11/06 A3027 RMK A01 T01060062  RH  075%=      5-min Rain = 0
KREE 091625Z 29007KT 11/07 A3027 RMK A01 T01110066  RH  075%=      5-min Rain = 0
KREE 091630Z 28006KT 12/07 A3027 RMK A01 T01180072  RH  075%=      5-min Rain = 0
KREE 091635Z 29007KT 12/07 A3027 RMK A01 T01190069  RH  072%=      5-min Rain = 0
KREE 091640Z 28006KT 12/07 A3027 RMK A01 T01210069  RH  072%=      5-min Rain = 0
KREE 091645Z 29006KT 12/07 A3027 RMK A01 T01240071  RH  071%=      5-min Rain = 0
KREE 091650Z 27005KT 13/07 A3027 RMK A01 T01290071  RH  069%=      5-min Rain = 0
KREE 091655Z 28005KT 13/07 A3027 RMK A01 T01310071  RH  068%=      5-min Rain = 0
KREE 091700Z 26006KT 13/07 A3026 RMK A01 T01340070  RH  066%=      5-min Rain = 0
KREE 091705Z 25007KT 14/07 A3026 RMK A01 T01370066  RH  063%=      5-min Rain = 0
KREE 091710Z 25007KT 14/06 A3026 RMK A01 T01390064  RH  061%=      5-min Rain = 0
KREE 091715Z 25008KT 14/06 A3026 RMK A01 T01430061  RH  059%=      5-min Rain = 0
KREE 091720Z 27007KT 14/06 A3026 RMK A01 T01440061  RH  058%=      5-min Rain = 0
KREE 091725Z 25006KT 15/07 A3026 RMK A01 T01470068  RH  060%=      5-min Rain = 0
KREE 091730Z 25006KT 15/07 A3025 RMK A01 T01480065  RH  058%=      5-min Rain = 0
KREE 091735Z 25006KT 15/06 A3025 RMK A01 T01520061  RH  055%=      5-min Rain = 0
KREE 091740Z 24008KT 16/07 A3025 RMK A01 T01550065  RH  056%=      5-min Rain = 0
KREE 091745Z 23007KT 16/07 A3025 RMK A01 T01580070  RH  057%=      5-min Rain = 0
KREE 091750Z 24007KT 16/07 A3024 RMK A01 T01600068  RH  055%=      5-min Rain = 0
KREE 091755Z 23009KT 16/07 A3024 RMK A01 T01620070  RH  055%=      5-min Rain = 0
KREE 091800Z 23008KT 16/07 A3024 RMK A01 T01630071  RH  055%=      5-min Rain = 0
KREE 091805Z 25007KT 17/07 A3023 RMK A01 T01680072  RH  054%=      5-min Rain = 0
KREE 091810Z 22008G15KT 17/08 A3023 RMK A01 T01730075  RH  054%=      5-min Rain = 0
KREE 091815Z 23008KT 17/07 A3023 RMK A01 T01730072  RH  052%=      5-min Rain = 0
KREE 091820Z 23008KT 18/07 A3023 RMK A01 T01750070  RH  051%=      5-min Rain = 0
KREE 091825Z 24006G11KT 18/07 A3023 RMK A01 T01780074  RH  051%=      5-min Rain = 0
KREE 091830Z 22006KT 18/07 A3022 RMK A01 T01790073  RH  051%=      5-min Rain = 0
KREE 091835Z 24007KT 18/07 A3022 RMK A01 T01800072  RH  050%=      5-min Rain = 0
KREE 091840Z 23007KT 19/07 A3021 RMK A01 T01860074  RH  049%=      5-min Rain = 0
KREE 091845Z 24007KT 19/07 A3021 RMK A01 T01870073  RH  048%=      5-min Rain = 0
KREE 091850Z 23008KT 19/07 A3021 RMK A01 T01900074  RH  047%=      5-min Rain = 0
KREE 091855Z 23008KT 19/07 A302 RMK A01 T01910070  RH  046%=      5-min Rain = 0
KREE 091900Z 23008KT 19/07 A302 RMK A01 T01920072  RH  046%=      5-min Rain = 0
KREE 091905Z 22009KT 20/07 A3019 RMK A01 T01950071  RH  045%=      5-min Rain = 0
KREE 091910Z 22007KT 20/08 A3019 RMK A01 T01990075  RH  045%=      5-min Rain = 0
KREE 091915Z 24009KT 20/07 A3019 RMK A01 T02000068  RH  043%=      5-min Rain = 0
KREE 091920Z 23009KT 20/07 A3019 RMK A01 T02040071  RH  043%=      5-min Rain = 0
KREE 091925Z 22009KT 20/07 A3018 RMK A01 T02000069  RH  043%=      5-min Rain = 0
KREE 091930Z 23009KT 20/07 A3018 RMK A01 T02040071  RH  043%=      5-min Rain = 0
KREE 091935Z 22008KT 20/07 A3018 RMK A01 T02030071  RH  043%=      5-min Rain = 0
KREE 091940Z 23008G13KT 21/07 A3017 RMK A01 T02070072  RH  042%=      5-min Rain = 0
KREE 091945Z 23008KT 21/07 A3017 RMK A01 T02100070  RH  041%=      5-min Rain = 0
KREE 091950Z 22010KT 21/07 A3017 RMK A01 T02090066  RH  040%=      5-min Rain = 0
KREE 091955Z 23009KT 21/07 A3016 RMK A01 T02090068  RH  041%=      5-min Rain = 0
KREE 092000Z 22008G13KT 21/07 A3016 RMK A01 T02090067  RH  040%=      5-min Rain = 0
KREE 092005Z 22008KT 21/06 A3016 RMK A01 T02100063  RH  039%=      5-min Rain = 0
KREE 092010Z 21010KT 21/06 A3016 RMK A01 T02120063  RH  038%=      5-min Rain = 0
KREE 092015Z 21009KT 21/06 A3016 RMK A01 T02120057  RH  037%=      5-min Rain = 0
KREE 092020Z 23008G13KT 22/05 A3016 RMK A01 T02160051  RH  034%=      5-min Rain = 0
KREE 092025Z 21009G17KT 22/05 A3016 RMK A01 T02160046  RH  033%=      5-min Rain = 0
KREE 092030Z 21009G15KT 22/04 A3015 RMK A01 T02160042  RH  032%=      5-min Rain = 0
KREE 092035Z 21009KT 22/04 A3015 RMK A01 T02160038  RH  031%=      5-min Rain = 0
KREE 092040Z 24009KT 22/03 A3015 RMK A01 T02180034  RH  030%=      5-min Rain = 0
KREE 092045Z 23009G14KT 22/04 A3015 RMK A01 T02180035  RH  030%=      5-min Rain = 0
KREE 092050Z 22009KT 22/03 A3015 RMK A01 T02160032  RH  030%=      5-min Rain = 0
KREE 092055Z 22008KT 22/03 A3015 RMK A01 T02160031  RH  030%=      5-min Rain = 0
KREE 092100Z 23009G14KT 22/04 A3014 RMK A01 T02190035  RH  030%=      5-min Rain = 0
KREE 092105Z 21009KT 22/05 A3014 RMK A01 T02170045  RH  033%=      5-min Rain = 0
KREE 092110Z 23007KT 22/04 A3014 RMK A01 T02170040  RH  032%=      5-min Rain = 0
KREE 092115Z 21008KT 22/05 A3014 RMK A01 T02180047  RH  033%=      5-min Rain = 0
KREE 092120Z 21009KT 22/04 A3014 RMK A01 T02180042  RH  032%=      5-min Rain = 0
KREE 092125Z 19009KT 22/04 A3014 RMK A01 T02160041  RH  032%=      5-min Rain = 0
KREE 092130Z 21009KT 22/04 A3014 RMK A01 T02200039  RH  031%=      5-min Rain = 0.01
KREE 092135Z 19008KT 22/04 A3014 RMK A01 T02180042  RH  032%=      5-min Rain = 0
KREE 092140Z 22011KT 22/04 A3013 RMK A01 T02170040  RH  032%=      5-min Rain = 0
KREE 092145Z 20007KT 22/04 A3013 RMK A01 T02170043  RH  032%=      5-min Rain = 0
KREE 092150Z 21008KT 22/05 A3013 RMK A01 T02160046  RH  033%=      5-min Rain = 0
KREE 092155Z 21010KT 22/04 A3013 RMK A01 T02150044  RH  033%=      5-min Rain = 0
KREE 092200Z 20008G13KT 21/05 A3013 RMK A01 T02140045  RH  034%=      5-min Rain = 0
KREE 092205Z 20010KT 21/05 A3013 RMK A01 T02140046  RH  034%=      5-min Rain = 0
KREE 092210Z 20007KT 21/05 A3013 RMK A01 T02140048  RH  034%=      5-min Rain = 0
KREE 092215Z 21009KT 21/05 A3012 RMK A01 T02140046  RH  034%=      5-min Rain = 0
KREE 092220Z 21009KT 21/05 A3012 RMK A01 T02130045  RH  034%=      5-min Rain = 0
KREE 092225Z 20010KT 21/05 A3012 RMK A01 T02120046  RH  034%=      5-min Rain = 0
KREE 092230Z 21008KT 21/04 A3012 RMK A01 T02110044  RH  034%=      5-min Rain = 0
KREE 092235Z 20008KT 21/05 A3012 RMK A01 T02120047  RH  034%=      5-min Rain = 0
KREE 092240Z 20010KT 21/04 A3012 RMK A01 T02100044  RH  034%=      5-min Rain = 0
KREE 092245Z 20010KT 21/04 A3012 RMK A01 T02080039  RH  033%=      5-min Rain = 0
KREE 092250Z 19009KT 21/04 A3012 RMK A01 T02050040  RH  034%=      5-min Rain = 0
KREE 092255Z 20009KT 20/04 A3012 RMK A01 T02000042  RH  036%=      5-min Rain = 0
KREE 092300Z 19009KT 20/04 A3012 RMK A01 T01960039  RH  036%=      5-min Rain = 0
KREE 092305Z 20009KT 19/04 A3012 RMK A01 T01930037  RH  036%=      5-min Rain = 0
KREE 092310Z 20008KT 19/04 A3012 RMK A01 T01880039  RH  038%=      5-min Rain = 0
KREE 092315Z 19009KT 19/04 A3012 RMK A01 T01870041  RH  038%=      5-min Rain = 0
KREE 092320Z 19008KT 18/04 A3012 RMK A01 T01830043  RH  040%=      5-min Rain = 0
KREE 092325Z 19008KT 18/05 A3012 RMK A01 T01780046  RH  042%=      5-min Rain = 0
KREE 092330Z 19008KT 17/05 A3012 RMK A01 T01720049  RH  045%=      5-min Rain = 0
KREE 092335Z 19008KT 17/05 A3012 RMK A01 T01660051  RH  047%=      5-min Rain = 0
KREE 092340Z 19008KT 16/05 A3012 RMK A01 T01610054  RH  050%=      5-min Rain = 0
KREE 092345Z 19008KT 16/06 A3012 RMK A01 T01570057  RH  052%=      5-min Rain = 0
KREE 092350Z 19008KT 15/06 A3012 RMK A01 T01520059  RH  054%=      5-min Rain = 0
KREE 092355Z 19008KT 15/06 A3012 RMK A01 T01480060  RH  056%=      5-min Rain = 0
KREE 100000Z 19008KT 14/06 A3012 RMK A01 T01440061  RH  058%=      5-min Rain = 0
KREE 100005Z 19008KT 14/06 A3012 RMK A01 T01400063  RH  060%=      5-min Rain = 0
KREE 100010Z 19008KT 14/06 A3012 RMK A01 T01370063  RH  062%=      5-min Rain = 0
KREE 100015Z 19008KT 13/06 A3012 RMK A01 T01330063  RH  064%=      5-min Rain = 0
KREE 100020Z 18008KT 13/06 A3012 RMK A01 T01310064  RH  065%=      5-min Rain = 0
KREE 100025Z 18008KT 13/06 A3012 RMK A01 T01290064  RH  066%=      5-min Rain = 0
KREE 100030Z 18009KT 13/07 A3012 RMK A01 T01290065  RH  066%=      5-min Rain = 0
KREE 100035Z 18008KT 13/06 A3012 RMK A01 T01280064  RH  066%=      5-min Rain = 0
KREE 100040Z 18008KT 13/06 A3012 RMK A01 T01260064  RH  067%=      5-min Rain = 0
KREE 100045Z 18009KT 13/06 A3012 RMK A01 T01250064  RH  067%=      5-min Rain = 0
KREE 100050Z 19009KT 12/06 A3012 RMK A01 T01230064  RH  068%=      5-min Rain = 0
KREE 100055Z 19009KT 12/06 A3012 RMK A01 T01190064  RH  070%=      5-min Rain = 0
KREE 100100Z 19009KT 12/07 A3012 RMK A01 T01170065  RH  071%=      5-min Rain = 0
KREE 100105Z 19009KT 12/07 A3012 RMK A01 T01170065  RH  071%=      5-min Rain = 0
KREE 100110Z 19009KT 12/07 A3012 RMK A01 T01180065  RH  071%=      5-min Rain = 0
KREE 100115Z 19009KT 12/07 A3013 RMK A01 T01180065  RH  071%=      5-min Rain = 0
KREE 100120Z 19009KT 12/06 A3013 RMK A01 T01160064  RH  071%=      5-min Rain = 0
KREE 100125Z 19009KT 12/06 A3013 RMK A01 T01160063  RH  071%=      5-min Rain = 0
KREE 100130Z 19009KT 11/06 A3013 RMK A01 T01140062  RH  071%=      5-min Rain = 0
KREE 100135Z 19009KT 11/06 A3013 RMK A01 T01120062  RH  072%=      5-min Rain = 0
KREE 100140Z 19010KT 11/06 A3013 RMK A01 T01110062  RH  073%=      5-min Rain = 0
KREE 100145Z 19010KT 11/06 A3013 RMK A01 T01120062  RH  072%=      5-min Rain = 0
KREE 100150Z 18009KT 11/06 A3013 RMK A01 T01120062  RH  073%=      5-min Rain = 0
KREE 100155Z 19009KT 11/06 A3013 RMK A01 T01100061  RH  073%=      5-min Rain = 0
KREE 100200Z 19009KT 11/06 A3013 RMK A01 T01060059  RH  074%=      5-min Rain = 0
KREE 100205Z 19009KT 11/06 A3013 RMK A01 T01050059  RH  074%=      5-min Rain = 0
KREE 100210Z 19009KT 10/06 A3013 RMK A01 T01040058  RH  074%=      5-min Rain = 0
KREE 100215Z 19009KT 10/06 A3013 RMK A01 T01020058  RH  075%=      5-min Rain = 0
KREE 100220Z 19009KT 10/06 A3013 RMK A01 T01010058  RH  076%=      5-min Rain = 0
KREE 100225Z 19009KT 10/06 A3013 RMK A01 T00990057  RH  076%=      5-min Rain = 0
KREE 100230Z 19009KT 10/06 A3012 RMK A01 T00970058  RH  078%=      5-min Rain = 0
KREE 100235Z 19009KT 10/06 A3012 RMK A01 T00970058  RH  078%=      5-min Rain = 0
KREE 100240Z 19009KT 10/06 A3012 RMK A01 T00970059  RH  078%=      5-min Rain = 0
KREE 100245Z 19009KT 10/06 A3012 RMK A01 T00960059  RH  079%=      5-min Rain = 0
KREE 100250Z 19009KT 09/06 A3012 RMK A01 T00940058  RH  080%=      5-min Rain = 0
KREE 100255Z 19009KT 09/06 A3012 RMK A01 T00930058  RH  080%=      5-min Rain = 0
KREE 100300Z 19009KT 09/06 A3012 RMK A01 T00920058  RH  080%=      5-min Rain = 0
KREE 100305Z 19010KT 09/06 A3012 RMK A01 T00920058  RH  080%=      5-min Rain = 0
KREE 100310Z 19009KT 09/06 A3012 RMK A01 T00910058  RH  081%=      5-min Rain = 0
KREE 100315Z 19009KT 09/06 A3012 RMK A01 T00900058  RH  082%=      5-min Rain = 0
KREE 100320Z 20009KT 09/06 A3012 RMK A01 T00890058  RH  082%=      5-min Rain = 0
KREE 100325Z 19008KT 09/06 A3012 RMK A01 T00880058  RH  083%=      5-min Rain = 0
KREE 100330Z 19008KT 09/06 A3012 RMK A01 T00870058  RH  083%=      5-min Rain = 0
KREE 100335Z 19009KT 09/06 A3012 RMK A01 T00860059  RH  084%=      5-min Rain = 0
KREE 100340Z 19009KT 09/06 A3011 RMK A01 T00880061  RH  084%=      5-min Rain = 0
KREE 100345Z 19009KT 09/06 A3011 RMK A01 T00880060  RH  084%=      5-min Rain = 0
KREE 100350Z 19009KT 09/06 A3011 RMK A01 T00870060  RH  085%=      5-min Rain = 0
KREE 100355Z 19009KT 09/06 A3011 RMK A01 T00870061  RH  085%=      5-min Rain = 0
KREE 100400Z 18008KT 09/06 A3011 RMK A01 T00860061  RH  085%=      5-min Rain = 0
KREE 100405Z 18008KT 09/06 A3011 RMK A01 T00860062  RH  086%=      5-min Rain = 0
KREE 100410Z 19009KT 09/06 A3011 RMK A01 T00870063  RH  086%=      5-min Rain = 0
KREE 100415Z 19008KT 09/06 A3011 RMK A01 T00860063  RH  086%=      5-min Rain = 0
KREE 100420Z 19008KT 08/06 A3011 RMK A01 T00840062  RH  087%=      5-min Rain = 0
KREE 100425Z 20007KT 08/06 A3011 RMK A01 T00820061  RH  087%=      5-min Rain = 0
KREE 100430Z 20007KT 08/06 A3011 RMK A01 T00810060  RH  088%=      5-min Rain = 0
KREE 100435Z 20007KT 08/06 A3011 RMK A01 T00810060  RH  088%=      5-min Rain = 0
KREE 100440Z 20007KT 08/06 A3011 RMK A01 T00790058  RH  088%=      5-min Rain = 0
KREE 100445Z 20007KT 08/06 A3011 RMK A01 T00790060  RH  089%=      5-min Rain = 0
KREE 100450Z 20007KT 08/06 A3011 RMK A01 T00810060  RH  088%=      5-min Rain = 0
KREE 100455Z 20006KT 08/06 A3011 RMK A01 T00790058  RH  088%=      5-min Rain = 0
KREE 100500Z 20006KT 08/06 A3011 RMK A01 T00770057  RH  089%=      5-min Rain = 0
KREE 100505Z 21006KT 08/06 A3011 RMK A01 T00760057  RH  089%=      5-min Rain = 0
KREE 100510Z 21005KT 08/06 A3011 RMK A01 T00750056  RH  089%=      5-min Rain = 0
KREE 100515Z 21005KT 07/06 A3011 RMK A01 T00740055  RH  089%=      5-min Rain = 0
KREE 100520Z 21005KT 08/06 A3011 RMK A01 T00750056  RH  089%=      5-min Rain = 0
KREE 100525Z 20006KT 07/05 A3011 RMK A01 T00730054  RH  089%=      5-min Rain = 0
KREE 100530Z 20006KT 07/05 A301 RMK A01 T00730054  RH  089%=      5-min Rain = 0
KREE 100535Z 21007KT 07/06 A301 RMK A01 T00730055  RH  089%=      5-min Rain = 0
KREE 100540Z 21006KT 07/05 A301 RMK A01 T00710052  RH  089%=      5-min Rain = 0
KREE 100545Z 21006KT 07/05 A301 RMK A01 T00680050  RH  090%=      5-min Rain = 0
KREE 100550Z 21006KT 06/05 A301 RMK A01 T00630047  RH  090%=      5-min Rain = 0
KREE 100555Z 21006KT 06/05 A301 RMK A01 T00620046  RH  091%=      5-min Rain = 0

Page generated in 0.0093 seconds.